createdAt,value
2022-10-01T00:00:03.249Z,49.30
2022-10-01T00:02:55.751Z,45.90
2022-10-01T00:05:27.620Z,48.70
2022-10-01T00:07:59.352Z,48.80
2022-10-01T00:10:32.876Z,54.50
2022-10-01T00:13:05.016Z,54.10
2022-10-01T00:15:36.718Z,49.30
2022-10-01T00:18:09.111Z,46.30
2022-10-01T00:20:43.592Z,53.20
2022-10-01T00:23:16.803Z,48.00
2022-10-01T00:25:49.679Z,46.60
2022-10-01T00:28:21.777Z,47.90
2022-10-01T00:30:53.718Z,52.40
2022-10-01T00:33:25.469Z,42.60
2022-10-01T00:35:57.878Z,46.30
2022-10-01T00:38:30.031Z,49.70
2022-10-01T00:41:01.801Z,51.90
2022-10-01T00:43:34.933Z,47.20
2022-10-01T00:46:11.112Z,47.40
2022-10-01T00:48:47.814Z,47.30
2022-10-01T00:51:21.193Z,47.60
2022-10-01T00:53:52.974Z,47.60
2022-10-01T00:56:25.006Z,43.20
2022-10-01T00:58:57.129Z,47.60
2022-10-01T01:01:29.207Z,48.00
2022-10-01T01:04:01.631Z,47.50
2022-10-01T01:06:33.465Z,53.70
2022-10-01T01:09:05.203Z,44.40
2022-10-01T01:11:43.427Z,45.40
2022-10-01T01:14:19.300Z,51.10
2022-10-01T01:16:53.459Z,44.70
2022-10-01T01:19:34.923Z,47.40
2022-10-01T01:22:08.449Z,48.20
2022-10-01T01:24:49.091Z,50.00
2022-10-01T01:27:29.480Z,43.40
2022-10-01T01:30:05.358Z,47.60
2022-10-01T01:32:46.685Z,46.30
2022-10-01T01:35:22.312Z,45.20
2022-10-01T01:37:56.479Z,42.10
2022-10-01T01:40:29.643Z,50.20
2022-10-01T01:43:02.215Z,43.30
2022-10-01T01:45:35.711Z,48.40
2022-10-01T01:48:09.317Z,43.10
2022-10-01T01:50:46.445Z,45.00
2022-10-01T01:53:18.395Z,43.20
2022-10-01T01:55:51.359Z,42.70
2022-10-01T01:58:24.360Z,43.20
2022-10-01T02:00:56.430Z,40.50
2022-10-01T02:03:29.501Z,45.50
2022-10-01T02:06:09.454Z,42.80
2022-10-01T02:08:44.179Z,43.80
2022-10-01T02:11:26.948Z,45.30
2022-10-01T02:14:08.225Z,42.80
2022-10-01T02:16:48.265Z,45.70
2022-10-01T02:19:27.665Z,44.50
2022-10-01T02:22:02.211Z,49.80
2022-10-01T02:24:41.397Z,46.20
2022-10-01T02:27:17.369Z,42.80
2022-10-01T02:29:49.762Z,44.70
2022-10-01T02:32:22.084Z,45.40
2022-10-01T02:34:55.703Z,47.90
2022-10-01T02:37:29.158Z,49.20
2022-10-01T02:40:02.414Z,57.00
2022-10-01T02:42:35.927Z,55.50
2022-10-01T02:45:09.396Z,56.60
2022-10-01T02:47:44.534Z,57.70
2022-10-01T02:50:17.039Z,61.10
2022-10-01T02:52:53.825Z,54.40
2022-10-01T02:55:29.798Z,58.10
2022-10-01T02:58:01.542Z,53.10
2022-10-01T03:00:33.710Z,60.00
2022-10-01T03:03:05.461Z,58.80
2022-10-01T03:05:37.315Z,61.50
2022-10-01T03:08:09.305Z,57.90
2022-10-01T03:10:44.709Z,58.90
2022-10-01T03:13:19.929Z,59.30
2022-10-01T03:15:51.734Z,59.60
2022-10-01T03:18:23.572Z,63.30
2022-10-01T03:20:55.233Z,61.10
2022-10-01T03:23:27.017Z,60.00
2022-10-01T03:25:58.662Z,58.00
2022-10-01T03:28:30.502Z,56.10
2022-10-01T03:31:09.894Z,55.50
2022-10-01T03:33:41.707Z,58.00
2022-10-01T03:36:13.354Z,62.10
2022-10-01T03:38:45.180Z,59.50
2022-10-01T03:41:16.800Z,57.10
2022-10-01T03:43:48.625Z,60.30
2022-10-01T03:46:20.310Z,58.00
2022-10-01T03:48:52.265Z,54.20
2022-10-01T03:51:23.940Z,57.10
2022-10-01T03:53:56.708Z,58.20
2022-10-01T03:56:28.446Z,57.50
2022-10-01T03:59:00.265Z,59.30
2022-10-01T04:01:32.447Z,59.50
2022-10-01T04:04:05.369Z,58.90
2022-10-01T04:06:37.279Z,57.30
2022-10-01T04:09:09.827Z,58.20
2022-10-01T04:11:41.563Z,53.80
2022-10-01T04:14:13.423Z,60.10
2022-10-01T04:16:45.368Z,54.60
2022-10-01T04:19:17.562Z,57.50
2022-10-01T04:21:49.635Z,61.00
2022-10-01T04:24:21.572Z,64.10
2022-10-01T04:26:54.829Z,59.40
2022-10-01T04:29:26.811Z,57.30
2022-10-01T04:31:58.882Z,68.70
2022-10-01T04:34:44.753Z,70.40
2022-10-01T04:37:16.795Z,81.90
2022-10-01T04:39:48.902Z,66.60
2022-10-01T04:42:20.930Z,70.90
2022-10-01T04:44:52.981Z,60.80
2022-10-01T04:47:24.799Z,68.00
2022-10-01T04:49:56.629Z,68.80
2022-10-01T04:52:28.821Z,75.90
2022-10-01T04:55:01.469Z,72.80
2022-10-01T04:57:33.258Z,63.60
2022-10-01T05:00:06.427Z,73.10
2022-10-01T05:02:38.160Z,74.30
2022-10-01T05:05:11.380Z,72.20
2022-10-01T05:07:44.496Z,54.40
2022-10-01T05:10:18.292Z,71.30
2022-10-01T05:12:52.098Z,58.90
2022-10-01T05:15:24.222Z,63.60
2022-10-01T05:17:55.943Z,64.90
2022-10-01T05:20:29.282Z,59.40
2022-10-01T05:23:01.028Z,58.30
2022-10-01T05:25:33.393Z,58.70
2022-10-01T05:28:06.039Z,58.30
2022-10-01T05:30:38.347Z,53.30
2022-10-01T05:33:10.040Z,63.70
2022-10-01T05:35:43.106Z,65.90
2022-10-01T05:38:14.983Z,66.00
2022-10-01T05:40:49.066Z,71.50
2022-10-01T05:45:51.383Z,67.80
2022-10-01T05:48:23.132Z,68.40
2022-10-01T05:50:55.224Z,66.10
2022-10-01T05:53:27.692Z,65.00
2022-10-01T05:56:03.130Z,68.90
2022-10-01T05:58:35.337Z,64.90
2022-10-01T06:01:07.547Z,81.90
2022-10-01T06:03:39.297Z,87.40
2022-10-01T06:06:11.210Z,87.10
2022-10-01T06:08:47.284Z,109.50
2022-10-01T06:11:19.815Z,112.00
2022-10-01T06:13:51.565Z,106.00
2022-10-01T06:16:23.308Z,103.50
2022-10-01T06:18:57.839Z,86.90
2022-10-01T06:21:30.751Z,89.80
2022-10-01T06:24:02.894Z,80.90
2022-10-01T06:26:34.731Z,82.50
2022-10-01T06:29:06.485Z,87.10
2022-10-01T06:31:38.970Z,80.70
2022-10-01T06:34:10.940Z,80.40
2022-10-01T06:36:42.896Z,90.20
2022-10-01T06:39:14.948Z,81.00
2022-10-01T06:41:48.490Z,81.60
2022-10-01T06:44:20.787Z,90.00
2022-10-01T06:46:54.336Z,93.30
2022-10-01T06:49:26.985Z,92.70
2022-10-01T06:52:16.506Z,92.40
2022-10-01T06:54:48.283Z,102.70
2022-10-01T06:57:20.084Z,101.10
2022-10-01T06:59:52.410Z,98.10
2022-10-01T07:02:28.197Z,96.40
2022-10-01T07:05:00.050Z,88.20
2022-10-01T07:07:35.160Z,83.10
2022-10-01T07:10:09.072Z,85.00
2022-10-01T07:15:12.259Z,90.90
2022-10-01T07:17:48.468Z,79.90
2022-10-01T07:20:21.454Z,85.00
2022-10-01T07:22:59.527Z,83.90
2022-10-01T07:25:31.530Z,84.20
2022-10-01T07:28:05.491Z,74.70
2022-10-01T07:30:40.628Z,70.60
2022-10-01T07:33:13.418Z,61.70
2022-10-01T07:35:48.892Z,64.20
2022-10-01T07:38:20.702Z,60.50
2022-10-01T07:40:55.052Z,57.00
2022-10-01T07:43:26.836Z,64.60
2022-10-01T07:46:00.286Z,59.20
2022-10-01T07:48:32.317Z,64.20
2022-10-01T07:51:04.328Z,61.90
2022-10-01T07:53:36.858Z,52.10
2022-10-01T07:56:08.689Z,53.20
2022-10-01T07:58:42.309Z,49.50
2022-10-01T08:01:13.888Z,48.50
2022-10-01T08:03:45.927Z,53.00
2022-10-01T08:06:21.935Z,45.00
2022-10-01T08:08:56.472Z,47.20
2022-10-01T08:11:28.126Z,41.00
2022-10-01T08:13:59.994Z,44.70
2022-10-01T08:16:33.784Z,41.10
2022-10-01T08:21:36.847Z,32.10
2022-10-01T08:24:09.370Z,38.20
2022-10-01T08:26:41.163Z,30.80
2022-10-01T08:29:16.935Z,29.90
2022-10-01T08:31:49.365Z,28.60
2022-10-01T08:34:21.575Z,27.30
2022-10-01T08:36:54.762Z,25.60
2022-10-01T08:39:26.828Z,25.40
2022-10-01T08:42:06.464Z,24.80
2022-10-01T08:44:42.378Z,23.90
2022-10-01T08:47:19.847Z,24.10
2022-10-01T08:49:54.946Z,24.20
2022-10-01T08:52:29.825Z,22.80
2022-10-01T08:55:03.393Z,24.70
2022-10-01T08:57:39.274Z,24.20
2022-10-01T09:00:15.215Z,25.00
2022-10-01T09:02:47.858Z,24.60
2022-10-01T09:05:25.486Z,25.20
2022-10-01T09:08:05.412Z,23.50
2022-10-01T09:10:45.804Z,22.50
2022-10-01T09:13:34.081Z,24.80
2022-10-01T09:16:13.614Z,27.80
2022-10-01T09:18:58.253Z,24.90
2022-10-01T09:21:41.401Z,26.30
2022-10-01T09:24:16.854Z,23.70
2022-10-01T09:26:49.958Z,29.70
2022-10-01T09:29:26.902Z,26.10
2022-10-01T09:31:59.216Z,24.80
2022-10-01T09:34:34.360Z,24.90
2022-10-01T09:37:14.914Z,25.90
2022-10-01T09:39:55.053Z,28.40
2022-10-01T09:42:29.048Z,28.80
2022-10-01T09:45:00.882Z,27.70
2022-10-01T09:47:35.365Z,30.90
2022-10-01T09:50:11.124Z,29.80
2022-10-01T09:52:43.805Z,31.70
2022-10-01T09:55:26.972Z,30.80
2022-10-01T09:58:03.534Z,27.20
2022-10-01T10:00:35.330Z,34.20
2022-10-01T10:03:07.577Z,27.70
2022-10-01T10:05:49.593Z,26.60
2022-10-01T10:08:26.944Z,23.80
2022-10-01T10:11:01.557Z,22.40
2022-10-01T10:13:39.126Z,22.50
2022-10-01T10:16:17.160Z,23.10
2022-10-01T10:18:52.347Z,24.00
2022-10-01T10:21:26.877Z,23.90
2022-10-01T10:24:00.292Z,24.00
2022-10-01T10:26:33.868Z,23.20
2022-10-01T10:29:08.445Z,28.20
2022-10-01T10:31:44.252Z,29.10
2022-10-01T10:34:19.132Z,31.50
2022-10-01T10:36:53.380Z,30.50
2022-10-01T10:39:29.472Z,33.00
2022-10-01T10:42:02.397Z,32.30
2022-10-01T10:44:38.964Z,32.80
2022-10-01T10:47:14.928Z,33.80
2022-10-01T10:49:48.754Z,31.90
2022-10-01T10:52:30.895Z,32.70
2022-10-01T10:55:04.554Z,33.70
2022-10-01T10:57:38.043Z,34.70
2022-10-01T11:00:16.796Z,33.70
2022-10-01T11:02:55.822Z,34.10
2022-10-01T11:05:30.251Z,34.00
2022-10-01T11:08:04.207Z,34.00
2022-10-01T11:10:46.178Z,30.40
2022-10-01T11:13:42.380Z,30.90
2022-10-01T11:16:27.842Z,28.10
2022-10-01T11:19:07.852Z,27.50
2022-10-01T11:21:55.443Z,30.00
2022-10-01T11:24:43.703Z,27.90
2022-10-01T11:27:24.509Z,28.30
2022-10-01T11:30:03.524Z,27.10
2022-10-01T11:32:41.567Z,25.80
2022-10-01T11:35:40.616Z,25.60
2022-10-01T11:38:40.074Z,25.10
2022-10-01T11:41:23.812Z,25.60
2022-10-01T11:43:58.895Z,23.30
2022-10-01T11:46:43.093Z,23.00
2022-10-01T11:52:15.889Z,19.90
2022-10-01T11:54:57.618Z,19.40
2022-10-01T11:57:46.309Z,19.00
2022-10-01T12:00:18.145Z,15.30
2022-10-01T12:02:54.070Z,16.10
2022-10-01T12:05:28.799Z,13.40
2022-10-01T12:08:07.346Z,13.90
2022-10-01T12:10:44.438Z,13.30
2022-10-01T12:13:22.901Z,12.90
2022-10-01T12:15:59.040Z,12.40
2022-10-01T12:18:34.492Z,13.10
2022-10-01T12:21:13.232Z,13.60
2022-10-01T12:23:47.493Z,13.10
2022-10-01T12:26:23.760Z,13.70
2022-10-01T12:29:00.531Z,12.20
2022-10-01T12:31:39.781Z,11.60
2022-10-01T12:34:16.474Z,9.60
2022-10-01T12:36:55.971Z,10.70
2022-10-01T12:39:37.689Z,10.40
2022-10-01T12:42:20.869Z,8.10
2022-10-01T12:45:02.651Z,8.90
2022-10-01T12:47:42.205Z,9.90
2022-10-01T12:50:26.548Z,9.40
2022-10-01T12:53:16.633Z,8.50
2022-10-01T12:56:01.092Z,7.50
2022-10-01T12:58:46.777Z,7.70
2022-10-01T13:01:28.401Z,7.80
2022-10-01T13:04:24.535Z,6.80
2022-10-01T13:07:05.627Z,6.90
2022-10-01T13:09:48.665Z,6.40
2022-10-01T13:12:34.385Z,6.90
2022-10-01T13:15:07.016Z,5.80
2022-10-01T13:17:43.292Z,5.50
2022-10-01T13:20:18.408Z,5.50
2022-10-01T13:22:54.934Z,5.30
2022-10-01T13:25:33.765Z,5.30
2022-10-01T13:28:13.652Z,5.90
2022-10-01T13:30:56.036Z,6.70
2022-10-01T13:33:29.333Z,5.70
2022-10-01T13:36:02.803Z,6.30
2022-10-01T13:38:44.130Z,7.70
2022-10-01T13:41:22.635Z,6.20
2022-10-01T13:43:58.323Z,5.60
2022-10-01T13:46:33.248Z,6.50
2022-10-01T13:49:09.388Z,6.50
2022-10-01T13:51:41.881Z,6.70
2022-10-01T13:54:27.823Z,9.40
2022-10-01T13:57:10.212Z,5.90
2022-10-01T13:59:43.637Z,7.00
2022-10-01T14:02:32.018Z,6.80
2022-10-01T14:05:23.975Z,6.00
2022-10-01T14:08:11.493Z,6.60
2022-10-01T14:11:06.459Z,7.40
2022-10-01T14:14:03.534Z,8.40
2022-10-01T14:16:39.149Z,7.40
2022-10-01T14:19:11.658Z,7.80
2022-10-01T14:21:53.518Z,8.00
2022-10-01T14:24:31.871Z,8.10
2022-10-01T14:27:09.604Z,8.10
2022-10-01T14:29:50.254Z,7.80
2022-10-01T14:32:30.283Z,9.00
2022-10-01T14:35:20.828Z,8.50
2022-10-01T14:37:52.833Z,9.90
2022-10-01T14:40:25.610Z,10.40
2022-10-01T14:43:02.282Z,10.50
2022-10-01T14:45:34.313Z,11.50
2022-10-01T14:48:07.889Z,12.70
2022-10-01T14:50:40.356Z,12.30
2022-10-01T14:53:16.034Z,12.10
2022-10-01T14:55:49.384Z,13.70
2022-10-01T14:58:26.887Z,13.30
2022-10-01T15:00:59.247Z,13.80
2022-10-01T15:03:38.655Z,13.30
2022-10-01T15:06:14.784Z,14.60
2022-10-01T15:08:47.958Z,14.30
2022-10-01T15:11:21.210Z,15.20
2022-10-01T15:13:54.737Z,15.80
2022-10-01T15:18:59.479Z,15.00
2022-10-01T15:21:36.106Z,16.00
2022-10-01T15:24:12.218Z,16.90
2022-10-01T15:26:44.399Z,17.10
2022-10-01T15:29:18.423Z,16.60
2022-10-01T15:31:53.226Z,16.30
2022-10-01T15:34:27.154Z,16.30
2022-10-01T15:39:33.394Z,16.80
2022-10-01T15:42:09.659Z,17.40
2022-10-01T15:44:45.644Z,17.40
2022-10-01T15:47:29.375Z,18.40
2022-10-01T15:50:19.542Z,17.10
2022-10-01T15:53:00.248Z,18.90
2022-10-01T15:55:36.553Z,19.30
2022-10-01T15:58:15.214Z,19.10
2022-10-01T16:00:57.945Z,18.20
2022-10-01T16:03:33.629Z,18.40
2022-10-01T16:06:07.200Z,18.50
2022-10-01T16:08:50.456Z,18.00
2022-10-01T16:11:27.822Z,18.10
2022-10-01T16:14:29.936Z,18.90
2022-10-01T16:17:33.839Z,19.10
2022-10-01T16:20:43.920Z,18.60
2022-10-01T16:23:43.960Z,18.30
2022-10-01T16:26:34.997Z,18.60
2022-10-01T16:29:14.339Z,19.80
2022-10-01T16:31:46.731Z,19.30
2022-10-01T16:34:19.932Z,18.30
2022-10-01T16:36:52.254Z,17.90
2022-10-01T16:39:25.375Z,18.90
2022-10-01T16:42:22.165Z,19.90
2022-10-01T16:44:48.928Z,19.30
2022-10-01T16:47:20.545Z,19.00
2022-10-01T16:49:53.466Z,21.70
2022-10-01T16:52:25.072Z,20.70
2022-10-01T16:54:57.103Z,22.10
2022-10-01T16:57:28.962Z,22.50
2022-10-01T17:00:00.611Z,23.10
2022-10-01T17:02:32.363Z,22.50
2022-10-01T17:05:04.182Z,23.10
2022-10-01T17:07:35.832Z,21.20
2022-10-01T17:10:08.667Z,21.20
2022-10-01T17:12:40.837Z,23.00
2022-10-01T17:15:17.341Z,22.90
2022-10-01T17:17:49.327Z,22.60
2022-10-01T17:20:21.526Z,24.70
2022-10-01T17:22:53.911Z,26.50
2022-10-01T17:25:28.050Z,24.50
2022-10-01T17:28:01.308Z,25.10
2022-10-01T17:30:33.791Z,25.70
2022-10-01T17:33:05.905Z,26.10
2022-10-01T17:35:38.434Z,27.20
2022-10-01T17:38:11.952Z,26.70
2022-10-01T17:40:45.301Z,28.50
2022-10-01T17:43:18.394Z,28.40
2022-10-01T17:45:57.964Z,29.80
2022-10-01T17:48:30.475Z,28.00
2022-10-01T17:51:05.799Z,29.90
2022-10-01T17:53:42.483Z,30.20
2022-10-01T17:56:16.365Z,35.50
2022-10-01T17:58:48.177Z,29.40
2022-10-01T18:01:22.291Z,29.70
2022-10-01T18:03:57.657Z,31.90
2022-10-01T18:06:29.826Z,34.20
2022-10-01T18:09:02.008Z,32.00
2022-10-01T18:11:34.391Z,28.60
2022-10-01T18:14:07.820Z,30.10
2022-10-01T18:16:40.213Z,31.30
2022-10-01T18:22:13.572Z,33.60
2022-10-01T18:24:46.187Z,32.00
2022-10-01T18:27:17.942Z,30.60
2022-10-01T18:29:49.679Z,34.00
2022-10-01T18:32:24.104Z,34.70
2022-10-01T18:34:57.977Z,36.80
2022-10-01T18:37:39.848Z,36.80
2022-10-01T18:40:16.911Z,33.30
2022-10-01T18:42:52.943Z,35.60
2022-10-01T18:45:35.170Z,40.80
2022-10-01T18:48:17.680Z,36.10
2022-10-01T18:50:53.717Z,39.10
2022-10-01T18:53:34.891Z,34.20
2022-10-01T18:56:27.598Z,35.00
2022-10-01T18:59:19.357Z,42.40
2022-10-01T19:02:00.662Z,35.90
2022-10-01T19:04:49.361Z,35.40
2022-10-01T19:07:32.428Z,41.00
2022-10-01T19:10:11.118Z,40.40
2022-10-01T19:12:54.824Z,34.90
2022-10-01T19:15:34.775Z,40.60
2022-10-01T19:18:17.444Z,42.60
2022-10-01T19:20:55.521Z,40.90
2022-10-01T19:24:01.043Z,43.80
2022-10-01T19:26:37.779Z,41.30
2022-10-01T19:29:22.468Z,45.50
2022-10-01T19:31:56.701Z,43.70
2022-10-01T19:34:31.483Z,41.30
2022-10-01T19:37:08.302Z,51.10
2022-10-01T19:39:42.582Z,50.10
2022-10-01T19:42:17.789Z,48.00
2022-10-01T19:44:55.773Z,52.10
2022-10-01T19:47:36.336Z,50.70
2022-10-01T19:50:21.281Z,55.60
2022-10-01T19:52:55.229Z,53.30
2022-10-01T19:55:27.722Z,52.20
2022-10-01T19:57:59.633Z,58.80
2022-10-01T20:00:31.844Z,58.20
2022-10-01T20:03:09.070Z,60.60
2022-10-01T20:05:45.986Z,63.30
2022-10-01T20:08:25.089Z,65.60
2022-10-01T20:10:58.673Z,66.40
2022-10-01T20:13:41.981Z,68.00
2022-10-01T20:16:19.611Z,81.60
2022-10-01T20:18:57.445Z,76.20
2022-10-01T20:21:45.574Z,79.90
2022-10-01T20:24:28.961Z,83.20
2022-10-01T20:27:11.730Z,86.90
2022-10-01T20:29:50.530Z,77.50
2022-10-01T20:32:25.994Z,78.20
2022-10-01T20:35:07.538Z,77.00
2022-10-01T20:37:48.230Z,72.80
2022-10-01T20:40:25.227Z,67.50
2022-10-01T20:43:04.350Z,66.60
2022-10-01T20:45:37.429Z,68.70
2022-10-01T20:48:14.931Z,72.60
2022-10-01T20:50:48.947Z,74.80
2022-10-01T20:53:26.949Z,74.30
2022-10-01T20:56:04.274Z,71.80
2022-10-01T20:58:44.671Z,72.20
2022-10-01T21:01:20.629Z,74.20
2022-10-01T21:03:57.027Z,75.30
2022-10-01T21:06:35.577Z,74.80
2022-10-01T21:09:15.842Z,77.50
2022-10-01T21:11:49.322Z,80.10
2022-10-01T21:14:26.791Z,78.60
2022-10-01T21:17:13.035Z,74.40
2022-10-01T21:19:54.869Z,76.50
2022-10-01T21:22:38.832Z,78.20
2022-10-01T21:31:20.969Z,71.40
2022-10-01T21:33:54.240Z,66.70
2022-10-01T21:36:31.145Z,53.80
2022-10-01T21:39:05.586Z,52.10
2022-10-01T21:41:42.975Z,50.80
2022-10-01T21:45:00.226Z,55.90
2022-10-01T21:47:36.275Z,55.70
2022-10-01T21:50:09.987Z,46.00
2022-10-01T21:52:46.563Z,38.60
2022-10-01T21:55:29.562Z,40.30
2022-10-01T21:58:07.658Z,34.10
2022-10-01T22:00:37.905Z,39.40
2022-10-01T22:03:18.583Z,36.40
2022-10-01T22:05:58.288Z,38.50
2022-10-01T22:08:39.878Z,37.40
2022-10-01T22:11:12.559Z,32.30
2022-10-01T22:13:47.313Z,32.30
2022-10-01T22:16:22.537Z,33.30
2022-10-01T22:18:53.861Z,27.60
2022-10-01T22:21:30.671Z,30.00
2022-10-01T22:24:07.468Z,27.30
2022-10-01T22:26:40.223Z,30.30
2022-10-01T22:29:15.401Z,28.40
2022-10-01T22:31:45.979Z,28.10
2022-10-01T22:34:17.618Z,27.80
2022-10-01T22:36:48.977Z,31.30
2022-10-01T22:39:21.478Z,28.20
2022-10-01T22:41:52.947Z,29.50
2022-10-01T22:44:23.385Z,23.10
2022-10-01T22:47:13.581Z,22.00
2022-10-01T22:49:59.908Z,21.90
2022-10-01T22:52:39.530Z,20.00
2022-10-01T22:55:28.492Z,21.00
2022-10-01T22:58:08.846Z,18.10
2022-10-01T23:00:49.319Z,15.30
2022-10-01T23:03:23.091Z,15.00
2022-10-01T23:06:00.363Z,15.90
2022-10-01T23:08:32.945Z,16.50
2022-10-01T23:11:11.539Z,16.00
2022-10-01T23:13:46.962Z,12.20
2022-10-01T23:16:23.185Z,12.70
2022-10-01T23:19:05.371Z,11.50
2022-10-01T23:21:41.637Z,12.20
2022-10-01T23:24:27.438Z,11.60
2022-10-01T23:27:06.613Z,12.30
2022-10-01T23:29:53.178Z,12.30
2022-10-01T23:32:31.691Z,12.40
2022-10-01T23:35:03.745Z,12.30
2022-10-01T23:37:47.006Z,13.50
2022-10-01T23:40:17.622Z,11.10
2022-10-01T23:42:52.659Z,12.70
2022-10-01T23:45:23.879Z,12.00
2022-10-01T23:48:00.409Z,12.50
2022-10-01T23:50:40.460Z,11.50
2022-10-01T23:53:18.734Z,11.00
2022-10-01T23:56:10.925Z,11.00
2022-10-01T23:58:48.492Z,11.00
